sensor_id;sensor_type;location;lat;lon;timestamp;temperature;humidity
43143;DHT22;28750;59.842;17.584;2024-03-08T00:00:37;-1.90;99.90
43143;DHT22;28750;59.842;17.584;2024-03-08T00:03:05;-1.90;99.90
43143;DHT22;28750;59.842;17.584;2024-03-08T00:05:32;-1.90;99.90
43143;DHT22;28750;59.842;17.584;2024-03-08T00:07:59;-1.90;99.90
43143;DHT22;28750;59.842;17.584;2024-03-08T00:10:26;-1.80;99.90
43143;DHT22;28750;59.842;17.584;2024-03-08T00:12:54;-1.90;99.90
43143;DHT22;28750;59.842;17.584;2024-03-08T00:15:23;-1.80;99.90
43143;DHT22;28750;59.842;17.584;2024-03-08T00:17:50;-1.70;99.90
43143;DHT22;28750;59.842;17.584;2024-03-08T00:20:17;-1.60;99.90
43143;DHT22;28750;59.842;17.584;2024-03-08T00:22:44;-1.50;99.90
43143;DHT22;28750;59.842;17.584;2024-03-08T00:25:11;-1.50;99.90
43143;DHT22;28750;59.842;17.584;2024-03-08T00:27:38;-1.50;99.90
43143;DHT22;28750;59.842;17.584;2024-03-08T00:30:06;-1.50;99.90
43143;DHT22;28750;59.842;17.584;2024-03-08T00:32:34;-1.40;99.90
43143;DHT22;28750;59.842;17.584;2024-03-08T00:35:02;-1.40;99.90
43143;DHT22;28750;59.842;17.584;2024-03-08T00:37:29;-1.40;99.90
43143;DHT22;28750;59.842;17.584;2024-03-08T00:39:56;-1.40;99.90
43143;DHT22;28750;59.842;17.584;2024-03-08T00:42:23;-1.40;99.90
43143;DHT22;28750;59.842;17.584;2024-03-08T00:44:50;-1.40;99.90
43143;DHT22;28750;59.842;17.584;2024-03-08T00:47:17;-1.70;99.90
43143;DHT22;28750;59.842;17.584;2024-03-08T00:49:44;-1.80;99.90
43143;DHT22;28750;59.842;17.584;2024-03-08T00:52:11;-1.90;99.90
43143;DHT22;28750;59.842;17.584;2024-03-08T00:54:38;-2.00;99.90
43143;DHT22;28750;59.842;17.584;2024-03-08T00:57:05;-1.90;99.90
43143;DHT22;28750;59.842;17.584;2024-03-08T00:59:32;-1.90;99.90
43143;DHT22;28750;59.842;17.584;2024-03-08T01:02:00;-1.90;99.90
43143;DHT22;28750;59.842;17.584;2024-03-08T01:04:27;-1.90;99.90
43143;DHT22;28750;59.842;17.584;2024-03-08T01:06:57;-1.70;99.90
43143;DHT22;28750;59.842;17.584;2024-03-08T01:09:25;-1.60;99.90
43143;DHT22;28750;59.842;17.584;2024-03-08T01:11:53;-1.60;99.90
43143;DHT22;28750;59.842;17.584;2024-03-08T01:14:21;-1.50;99.90
43143;DHT22;28750;59.842;17.584;2024-03-08T01:16:48;-1.50;99.90
43143;DHT22;28750;59.842;17.584;2024-03-08T01:19:15;-1.40;99.90
43143;DHT22;28750;59.842;17.584;2024-03-08T01:21:43;-1.40;99.90
43143;DHT22;28750;59.842;17.584;2024-03-08T01:24:10;-1.40;99.90
43143;DHT22;28750;59.842;17.584;2024-03-08T01:26:37;-1.40;99.90
43143;DHT22;28750;59.842;17.584;2024-03-08T01:29:04;-1.30;99.90
43143;DHT22;28750;59.842;17.584;2024-03-08T01:31:31;-1.40;99.90
43143;DHT22;28750;59.842;17.584;2024-03-08T01:33:58;-1.40;99.90
43143;DHT22;28750;59.842;17.584;2024-03-08T01:36:25;-1.40;99.90
43143;DHT22;28750;59.842;17.584;2024-03-08T01:38:52;-1.30;99.90
43143;DHT22;28750;59.842;17.584;2024-03-08T01:41:19;-1.30;99.90
43143;DHT22;28750;59.842;17.584;2024-03-08T01:43:46;-1.30;99.90
43143;DHT22;28750;59.842;17.584;2024-03-08T01:46:15;-1.20;99.90
43143;DHT22;28750;59.842;17.584;2024-03-08T01:48:43;-1.30;99.90
43143;DHT22;28750;59.842;17.584;2024-03-08T01:51:10;-1.30;99.90
43143;DHT22;28750;59.842;17.584;2024-03-08T01:53:38;-1.30;99.90
43143;DHT22;28750;59.842;17.584;2024-03-08T01:56:05;-1.30;99.90
43143;DHT22;28750;59.842;17.584;2024-03-08T01:58:32;-1.30;99.90
43143;DHT22;28750;59.842;17.584;2024-03-08T02:01:00;-1.30;99.90
43143;DHT22;28750;59.842;17.584;2024-03-08T02:03:28;-1.30;99.90
43143;DHT22;28750;59.842;17.584;2024-03-08T02:05:57;-1.30;99.90
43143;DHT22;28750;59.842;17.584;2024-03-08T02:08:24;-1.30;99.90
43143;DHT22;28750;59.842;17.584;2024-03-08T02:10:51;-1.30;99.90
43143;DHT22;28750;59.842;17.584;2024-03-08T02:13:18;-1.30;99.90
43143;DHT22;28750;59.842;17.584;2024-03-08T02:15:58;-1.30;99.90
43143;DHT22;28750;59.842;17.584;2024-03-08T02:18:26;-1.30;99.90
43143;DHT22;28750;59.842;17.584;2024-03-08T02:23:20;-1.30;99.90
43143;DHT22;28750;59.842;17.584;2024-03-08T02:25:47;-1.30;99.90
43143;DHT22;28750;59.842;17.584;2024-03-08T02:28:14;-1.30;99.90
43143;DHT22;28750;59.842;17.584;2024-03-08T02:30:41;-1.30;99.90
43143;DHT22;28750;59.842;17.584;2024-03-08T02:33:08;-1.40;99.90
43143;DHT22;28750;59.842;17.584;2024-03-08T02:35:35;-1.30;99.90
43143;DHT22;28750;59.842;17.584;2024-03-08T02:38:05;-1.30;99.90
43143;DHT22;28750;59.842;17.584;2024-03-08T02:40:32;-1.30;99.90
43143;DHT22;28750;59.842;17.584;2024-03-08T02:42:59;-1.30;99.90
43143;DHT22;28750;59.842;17.584;2024-03-08T02:45:24;-1.30;99.90
43143;DHT22;28750;59.842;17.584;2024-03-08T02:47:51;-1.30;99.90
43143;DHT22;28750;59.842;17.584;2024-03-08T02:50:18;-1.30;99.90
43143;DHT22;28750;59.842;17.584;2024-03-08T02:52:45;-1.30;99.90
43143;DHT22;28750;59.842;17.584;2024-03-08T02:55:13;-1.30;99.90
43143;DHT22;28750;59.842;17.584;2024-03-08T02:57:41;-1.40;99.90
43143;DHT22;28750;59.842;17.584;2024-03-08T03:00:09;-1.30;99.90
43143;DHT22;28750;59.842;17.584;2024-03-08T03:02:36;-1.30;99.90
43143;DHT22;28750;59.842;17.584;2024-03-08T03:05:04;-1.30;99.90
43143;DHT22;28750;59.842;17.584;2024-03-08T03:07:34;-1.30;99.90
43143;DHT22;28750;59.842;17.584;2024-03-08T03:10:01;-1.30;99.90
43143;DHT22;28750;59.842;17.584;2024-03-08T03:12:28;-1.40;99.90
43143;DHT22;28750;59.842;17.584;2024-03-08T03:14:56;-1.30;99.90
43143;DHT22;28750;59.842;17.584;2024-03-08T03:17:23;-1.30;99.90
43143;DHT22;28750;59.842;17.584;2024-03-08T03:19:51;-1.30;99.90
43143;DHT22;28750;59.842;17.584;2024-03-08T03:22:18;-1.30;99.90
43143;DHT22;28750;59.842;17.584;2024-03-08T03:24:45;-1.30;99.90
43143;DHT22;28750;59.842;17.584;2024-03-08T03:27:13;-1.30;99.90
43143;DHT22;28750;59.842;17.584;2024-03-08T03:29:41;-1.40;99.90
43143;DHT22;28750;59.842;17.584;2024-03-08T03:32:11;-1.40;99.90
43143;DHT22;28750;59.842;17.584;2024-03-08T03:34:38;-1.40;99.90
43143;DHT22;28750;59.842;17.584;2024-03-08T03:37:05;-1.40;99.90
43143;DHT22;28750;59.842;17.584;2024-03-08T03:39:34;-1.40;99.90
43143;DHT22;28750;59.842;17.584;2024-03-08T03:42:06;-1.40;99.90
43143;DHT22;28750;59.842;17.584;2024-03-08T03:44:33;-1.40;99.90
43143;DHT22;28750;59.842;17.584;2024-03-08T03:47:00;-1.40;99.90
43143;DHT22;28750;59.842;17.584;2024-03-08T03:49:27;-1.40;99.90
43143;DHT22;28750;59.842;17.584;2024-03-08T03:51:54;-1.50;99.90
43143;DHT22;28750;59.842;17.584;2024-03-08T03:54:21;-1.40;99.90
43143;DHT22;28750;59.842;17.584;2024-03-08T03:56:48;-1.50;99.90
43143;DHT22;28750;59.842;17.584;2024-03-08T03:59:18;-1.50;99.90
43143;DHT22;28750;59.842;17.584;2024-03-08T04:01:45;-1.60;99.90
43143;DHT22;28750;59.842;17.584;2024-03-08T04:04:12;-1.50;99.90
43143;DHT22;28750;59.842;17.584;2024-03-08T04:06:39;-1.40;99.90
43143;DHT22;28750;59.842;17.584;2024-03-08T04:09:06;-1.50;99.90
43143;DHT22;28750;59.842;17.584;2024-03-08T04:11:33;-1.50;99.90
43143;DHT22;28750;59.842;17.584;2024-03-08T04:14:00;-1.50;99.90
43143;DHT22;28750;59.842;17.584;2024-03-08T04:16:27;-1.50;99.90
43143;DHT22;28750;59.842;17.584;2024-03-08T04:18:54;-1.50;99.90
43143;DHT22;28750;59.842;17.584;2024-03-08T04:21:21;-1.50;99.90
43143;DHT22;28750;59.842;17.584;2024-03-08T04:23:48;-1.50;99.90
43143;DHT22;28750;59.842;17.584;2024-03-08T04:26:15;-1.50;99.90
43143;DHT22;28750;59.842;17.584;2024-03-08T04:28:42;-1.50;99.90
43143;DHT22;28750;59.842;17.584;2024-03-08T04:31:09;-1.50;99.90
43143;DHT22;28750;59.842;17.584;2024-03-08T04:33:36;-1.50;99.90
43143;DHT22;28750;59.842;17.584;2024-03-08T04:36:04;-1.50;99.90
43143;DHT22;28750;59.842;17.584;2024-03-08T04:38:31;-1.50;99.90
43143;DHT22;28750;59.842;17.584;2024-03-08T04:40:59;-1.60;99.90
43143;DHT22;28750;59.842;17.584;2024-03-08T04:43:27;-1.60;99.90
43143;DHT22;28750;59.842;17.584;2024-03-08T04:45:55;-1.60;99.90
43143;DHT22;28750;59.842;17.584;2024-03-08T04:48:22;-1.60;99.90
43143;DHT22;28750;59.842;17.584;2024-03-08T04:50:52;-1.60;99.90
43143;DHT22;28750;59.842;17.584;2024-03-08T04:53:21;-1.60;99.90
43143;DHT22;28750;59.842;17.584;2024-03-08T04:55:48;-1.60;99.90
43143;DHT22;28750;59.842;17.584;2024-03-08T04:58:15;-1.70;99.90
43143;DHT22;28750;59.842;17.584;2024-03-08T05:00:42;-1.80;99.90
43143;DHT22;28750;59.842;17.584;2024-03-08T05:03:09;-1.70;99.90
43143;DHT22;28750;59.842;17.584;2024-03-08T05:05:36;-1.70;99.90
43143;DHT22;28750;59.842;17.584;2024-03-08T05:08:03;-1.80;99.90
43143;DHT22;28750;59.842;17.584;2024-03-08T05:10:30;-1.60;99.90
43143;DHT22;28750;59.842;17.584;2024-03-08T05:12:58;-1.70;99.90
43143;DHT22;28750;59.842;17.584;2024-03-08T05:15:25;-1.70;99.90
43143;DHT22;28750;59.842;17.584;2024-03-08T05:17:52;-1.70;99.90
43143;DHT22;28750;59.842;17.584;2024-03-08T05:20:21;-1.70;99.90
43143;DHT22;28750;59.842;17.584;2024-03-08T05:22:48;-1.70;99.90
43143;DHT22;28750;59.842;17.584;2024-03-08T05:25:15;-1.70;99.90
43143;DHT22;28750;59.842;17.584;2024-03-08T05:27:43;-1.70;99.90
43143;DHT22;28750;59.842;17.584;2024-03-08T05:30:10;-1.70;99.90
43143;DHT22;28750;59.842;17.584;2024-03-08T05:32:41;-1.70;99.90
43143;DHT22;28750;59.842;17.584;2024-03-08T05:35:10;-1.60;99.90
43143;DHT22;28750;59.842;17.584;2024-03-08T05:37:40;-1.70;99.90
43143;DHT22;28750;59.842;17.584;2024-03-08T05:40:08;-1.60;99.90
43143;DHT22;28750;59.842;17.584;2024-03-08T05:42:35;-1.50;99.90
43143;DHT22;28750;59.842;17.584;2024-03-08T05:45:05;-1.10;99.90
43143;DHT22;28750;59.842;17.584;2024-03-08T05:47:33;-0.50;99.90
43143;DHT22;28750;59.842;17.584;2024-03-08T05:50:00;-0.30;99.90
43143;DHT22;28750;59.842;17.584;2024-03-08T05:52:27;-0.30;99.90
43143;DHT22;28750;59.842;17.584;2024-03-08T05:54:54;-0.60;99.90
43143;DHT22;28750;59.842;17.584;2024-03-08T05:57:21;-0.70;99.90
43143;DHT22;28750;59.842;17.584;2024-03-08T05:59:49;-0.60;99.90
43143;DHT22;28750;59.842;17.584;2024-03-08T06:02:16;-0.60;99.90
43143;DHT22;28750;59.842;17.584;2024-03-08T06:04:47;-0.50;99.90
43143;DHT22;28750;59.842;17.584;2024-03-08T06:07:15;-0.40;99.90
43143;DHT22;28750;59.842;17.584;2024-03-08T06:09:43;-0.40;99.90
43143;DHT22;28750;59.842;17.584;2024-03-08T06:12:12;-0.20;99.90
43143;DHT22;28750;59.842;17.584;2024-03-08T06:14:44;-0.30;99.90
43143;DHT22;28750;59.842;17.584;2024-03-08T06:17:11;-0.40;99.90
43143;DHT22;28750;59.842;17.584;2024-03-08T06:19:38;-0.50;99.90
43143;DHT22;28750;59.842;17.584;2024-03-08T06:22:05;-0.60;99.90
43143;DHT22;28750;59.842;17.584;2024-03-08T06:24:32;-0.50;99.90
43143;DHT22;28750;59.842;17.584;2024-03-08T06:27:02;-0.40;99.90
43143;DHT22;28750;59.842;17.584;2024-03-08T06:29:29;-0.50;99.90
43143;DHT22;28750;59.842;17.584;2024-03-08T06:31:56;-0.60;99.90
43143;DHT22;28750;59.842;17.584;2024-03-08T06:34:23;-0.70;99.90
43143;DHT22;28750;59.842;17.584;2024-03-08T06:36:50;-0.50;99.90
43143;DHT22;28750;59.842;17.584;2024-03-08T06:39:18;-0.60;99.90
43143;DHT22;28750;59.842;17.584;2024-03-08T06:41:45;-0.50;99.90
43143;DHT22;28750;59.842;17.584;2024-03-08T06:44:11;-0.40;99.90
43143;DHT22;28750;59.842;17.584;2024-03-08T06:46:38;-0.30;99.90
43143;DHT22;28750;59.842;17.584;2024-03-08T06:49:05;-0.30;99.90
43143;DHT22;28750;59.842;17.584;2024-03-08T06:51:34;-0.20;99.90
43143;DHT22;28750;59.842;17.584;2024-03-08T06:54:01;-0.10;99.90
43143;DHT22;28750;59.842;17.584;2024-03-08T06:56:36;-0.10;99.90
43143;DHT22;28750;59.842;17.584;2024-03-08T06:59:03;0.00;99.90
43143;DHT22;28750;59.842;17.584;2024-03-08T07:01:30;0.00;99.90
43143;DHT22;28750;59.842;17.584;2024-03-08T07:04:00;0.10;99.90
43143;DHT22;28750;59.842;17.584;2024-03-08T07:06:30;0.10;99.90
43143;DHT22;28750;59.842;17.584;2024-03-08T07:08:59;0.10;99.90
43143;DHT22;28750;59.842;17.584;2024-03-08T07:11:26;0.10;99.90
43143;DHT22;28750;59.842;17.584;2024-03-08T07:13:53;0.10;99.90
43143;DHT22;28750;59.842;17.584;2024-03-08T07:16:20;0.20;99.90
43143;DHT22;28750;59.842;17.584;2024-03-08T07:18:47;0.20;99.90
43143;DHT22;28750;59.842;17.584;2024-03-08T07:21:17;0.20;99.90
43143;DHT22;28750;59.842;17.584;2024-03-08T07:23:45;0.20;99.90
43143;DHT22;28750;59.842;17.584;2024-03-08T07:26:39;0.30;99.90
43143;DHT22;28750;59.842;17.584;2024-03-08T07:29:06;0.30;99.90
43143;DHT22;28750;59.842;17.584;2024-03-08T07:31:33;0.30;99.90
43143;DHT22;28750;59.842;17.584;2024-03-08T07:34:10;0.40;99.90
43143;DHT22;28750;59.842;17.584;2024-03-08T07:36:38;0.50;99.90
43143;DHT22;28750;59.842;17.584;2024-03-08T07:39:05;0.40;99.90
43143;DHT22;28750;59.842;17.584;2024-03-08T07:41:37;0.50;99.90
43143;DHT22;28750;59.842;17.584;2024-03-08T07:44:06;0.60;99.90
43143;DHT22;28750;59.842;17.584;2024-03-08T07:46:33;0.60;99.90
43143;DHT22;28750;59.842;17.584;2024-03-08T07:49:00;0.60;99.90
43143;DHT22;28750;59.842;17.584;2024-03-08T07:51:28;0.70;99.90
43143;DHT22;28750;59.842;17.584;2024-03-08T07:53:56;0.70;99.90
43143;DHT22;28750;59.842;17.584;2024-03-08T07:56:23;0.80;99.90
43143;DHT22;28750;59.842;17.584;2024-03-08T07:58:50;0.90;99.90
43143;DHT22;28750;59.842;17.584;2024-03-08T08:01:18;0.90;99.90
43143;DHT22;28750;59.842;17.584;2024-03-08T08:03:45;0.80;99.90
43143;DHT22;28750;59.842;17.584;2024-03-08T08:06:16;1.00;99.90
43143;DHT22;28750;59.842;17.584;2024-03-08T08:08:44;1.00;99.90
43143;DHT22;28750;59.842;17.584;2024-03-08T08:11:11;1.10;99.90
43143;DHT22;28750;59.842;17.584;2024-03-08T08:13:37;1.10;99.90
43143;DHT22;28750;59.842;17.584;2024-03-08T08:16:04;1.20;99.90
43143;DHT22;28750;59.842;17.584;2024-03-08T08:18:32;1.20;99.90
43143;DHT22;28750;59.842;17.584;2024-03-08T08:21:00;1.20;99.90
43143;DHT22;28750;59.842;17.584;2024-03-08T08:23:27;1.30;99.90
43143;DHT22;28750;59.842;17.584;2024-03-08T08:25:54;1.50;99.90
43143;DHT22;28750;59.842;17.584;2024-03-08T08:28:21;1.60;99.90
43143;DHT22;28750;59.842;17.584;2024-03-08T08:30:50;1.70;99.90
43143;DHT22;28750;59.842;17.584;2024-03-08T08:33:17;1.70;99.90
43143;DHT22;28750;59.842;17.584;2024-03-08T08:35:44;1.80;99.90
43143;DHT22;28750;59.842;17.584;2024-03-08T08:38:13;1.80;99.90
43143;DHT22;28750;59.842;17.584;2024-03-08T08:40:40;1.90;99.90
43143;DHT22;28750;59.842;17.584;2024-03-08T08:43:07;1.90;99.90
43143;DHT22;28750;59.842;17.584;2024-03-08T08:45:34;2.00;99.90
43143;DHT22;28750;59.842;17.584;2024-03-08T08:48:01;2.00;99.90
43143;DHT22;28750;59.842;17.584;2024-03-08T08:50:30;2.20;99.90
43143;DHT22;28750;59.842;17.584;2024-03-08T08:52:57;2.30;99.90
43143;DHT22;28750;59.842;17.584;2024-03-08T08:55:25;2.30;99.90
43143;DHT22;28750;59.842;17.584;2024-03-08T08:57:52;2.40;99.90
43143;DHT22;28750;59.842;17.584;2024-03-08T09:00:19;2.40;99.90
43143;DHT22;28750;59.842;17.584;2024-03-08T09:02:47;2.50;99.90
43143;DHT22;28750;59.842;17.584;2024-03-08T09:05:14;2.50;99.90
43143;DHT22;28750;59.842;17.584;2024-03-08T09:07:45;2.60;99.90
43143;DHT22;28750;59.842;17.584;2024-03-08T09:10:12;2.60;99.90
43143;DHT22;28750;59.842;17.584;2024-03-08T09:12:39;2.80;99.90
43143;DHT22;28750;59.842;17.584;2024-03-08T09:15:07;2.80;99.90
43143;DHT22;28750;59.842;17.584;2024-03-08T09:17:36;3.00;99.90
43143;DHT22;28750;59.842;17.584;2024-03-08T09:20:06;2.90;99.90
43143;DHT22;28750;59.842;17.584;2024-03-08T09:22:34;3.00;99.90
43143;DHT22;28750;59.842;17.584;2024-03-08T09:25:01;3.10;99.90
43143;DHT22;28750;59.842;17.584;2024-03-08T09:27:30;3.20;99.90
43143;DHT22;28750;59.842;17.584;2024-03-08T09:29:57;3.20;99.90
43143;DHT22;28750;59.842;17.584;2024-03-08T09:32:24;3.30;99.90
43143;DHT22;28750;59.842;17.584;2024-03-08T09:34:52;3.30;99.90
43143;DHT22;28750;59.842;17.584;2024-03-08T09:37:19;3.30;99.90
43143;DHT22;28750;59.842;17.584;2024-03-08T09:39:46;3.40;99.90
43143;DHT22;28750;59.842;17.584;2024-03-08T09:42:15;3.40;99.90
43143;DHT22;28750;59.842;17.584;2024-03-08T09:44:45;3.60;99.90
43143;DHT22;28750;59.842;17.584;2024-03-08T09:47:15;3.70;99.90
43143;DHT22;28750;59.842;17.584;2024-03-08T09:49:42;3.80;99.90
43143;DHT22;28750;59.842;17.584;2024-03-08T09:52:09;3.80;99.90
43143;DHT22;28750;59.842;17.584;2024-03-08T09:54:37;4.20;99.90
43143;DHT22;28750;59.842;17.584;2024-03-08T09:57:05;4.40;99.90
43143;DHT22;28750;59.842;17.584;2024-03-08T09:59:34;4.40;99.90
43143;DHT22;28750;59.842;17.584;2024-03-08T10:02:13;4.40;99.90
43143;DHT22;28750;59.842;17.584;2024-03-08T10:04:41;4.20;99.90
43143;DHT22;28750;59.842;17.584;2024-03-08T10:07:11;4.30;99.90
43143;DHT22;28750;59.842;17.584;2024-03-08T10:09:38;4.40;87.70
43143;DHT22;28750;59.842;17.584;2024-03-08T10:12:05;4.50;1.00
43143;DHT22;28750;59.842;17.584;2024-03-08T10:14:32;4.90;35.70
43143;DHT22;28750;59.842;17.584;2024-03-08T10:16:59;4.90;1.00
43143;DHT22;28750;59.842;17.584;2024-03-08T10:19:26;4.90;1.00
43143;DHT22;28750;59.842;17.584;2024-03-08T10:21:55;5.00;1.00
43143;DHT22;28750;59.842;17.584;2024-03-08T10:24:24;5.10;99.90
43143;DHT22;28750;59.842;17.584;2024-03-08T10:26:52;4.70;99.90
43143;DHT22;28750;59.842;17.584;2024-03-08T10:29:18;4.70;99.90
43143;DHT22;28750;59.842;17.584;2024-03-08T10:31:45;4.80;99.90
43143;DHT22;28750;59.842;17.584;2024-03-08T10:34:12;4.90;99.90
43143;DHT22;28750;59.842;17.584;2024-03-08T10:36:40;4.90;99.90
43143;DHT22;28750;59.842;17.584;2024-03-08T10:41:46;5.10;99.90
43143;DHT22;28750;59.842;17.584;2024-03-08T10:49:15;4.90;99.90
43143;DHT22;28750;59.842;17.584;2024-03-08T10:51:44;4.60;99.90
43143;DHT22;28750;59.842;17.584;2024-03-08T10:54:11;4.50;99.90
43143;DHT22;28750;59.842;17.584;2024-03-08T10:56:38;4.80;99.90
43143;DHT22;28750;59.842;17.584;2024-03-08T10:59:08;4.70;99.90
43143;DHT22;28750;59.842;17.584;2024-03-08T11:01:35;5.00;99.90
43143;DHT22;28750;59.842;17.584;2024-03-08T11:04:03;4.90;16.50
43143;DHT22;28750;59.842;17.584;2024-03-08T11:08:58;4.90;70.40
43143;DHT22;28750;59.842;17.584;2024-03-08T11:11:29;5.00;1.00
43143;DHT22;28750;59.842;17.584;2024-03-08T11:14:00;5.00;1.00
43143;DHT22;28750;59.842;17.584;2024-03-08T11:19:00;5.20;1.00
43143;DHT22;28750;59.842;17.584;2024-03-08T11:21:30;5.20;1.00
43143;DHT22;28750;59.842;17.584;2024-03-08T11:24:12;4.60;1.00
43143;DHT22;28750;59.842;17.584;2024-03-08T11:26:40;4.50;1.00
43143;DHT22;28750;59.842;17.584;2024-03-08T11:31:52;4.60;1.00
43143;DHT22;28750;59.842;17.584;2024-03-08T11:34:19;5.10;99.90
43143;DHT22;28750;59.842;17.584;2024-03-08T11:36:50;5.30;99.90
43143;DHT22;28750;59.842;17.584;2024-03-08T11:39:22;4.90;99.90
43143;DHT22;28750;59.842;17.584;2024-03-08T11:41:49;4.50;99.90
43143;DHT22;28750;59.842;17.584;2024-03-08T11:44:17;4.90;99.90
43143;DHT22;28750;59.842;17.584;2024-03-08T11:46:45;5.10;99.90
43143;DHT22;28750;59.842;17.584;2024-03-08T11:49:13;5.30;99.90
43143;DHT22;28750;59.842;17.584;2024-03-08T11:51:41;5.40;99.90
43143;DHT22;28750;59.842;17.584;2024-03-08T11:54:11;5.30;45.00
43143;DHT22;28750;59.842;17.584;2024-03-08T11:56:38;4.90;99.90
43143;DHT22;28750;59.842;17.584;2024-03-08T11:59:10;4.10;99.90
43143;DHT22;28750;59.842;17.584;2024-03-08T12:01:38;4.10;99.90
43143;DHT22;28750;59.842;17.584;2024-03-08T12:04:05;4.60;99.90
43143;DHT22;28750;59.842;17.584;2024-03-08T12:06:39;4.80;99.90
43143;DHT22;28750;59.842;17.584;2024-03-08T12:09:09;4.50;99.90
43143;DHT22;28750;59.842;17.584;2024-03-08T12:11:36;4.40;99.90
43143;DHT22;28750;59.842;17.584;2024-03-08T12:14:03;4.30;1.00
43143;DHT22;28750;59.842;17.584;2024-03-08T12:16:31;4.20;1.00
43143;DHT22;28750;59.842;17.584;2024-03-08T12:18:59;4.70;1.00
43143;DHT22;28750;59.842;17.584;2024-03-08T12:21:26;4.70;71.60
43143;DHT22;28750;59.842;17.584;2024-03-08T12:26:30;3.70;99.90
43143;DHT22;28750;59.842;17.584;2024-03-08T12:31:46;3.80;99.90
43143;DHT22;28750;59.842;17.584;2024-03-08T12:34:13;3.70;99.90
43143;DHT22;28750;59.842;17.584;2024-03-08T12:36:47;3.60;99.90
43143;DHT22;28750;59.842;17.584;2024-03-08T12:39:17;3.60;99.90
43143;DHT22;28750;59.842;17.584;2024-03-08T12:41:48;3.20;1.00
43143;DHT22;28750;59.842;17.584;2024-03-08T12:44:17;2.90;19.50
43143;DHT22;28750;59.842;17.584;2024-03-08T12:46:44;3.00;99.90
43143;DHT22;28750;59.842;17.584;2024-03-08T12:49:11;2.90;99.90
43143;DHT22;28750;59.842;17.584;2024-03-08T12:51:45;2.90;99.90
43143;DHT22;28750;59.842;17.584;2024-03-08T12:54:12;2.30;99.90
43143;DHT22;28750;59.842;17.584;2024-03-08T12:56:39;2.30;99.90
43143;DHT22;28750;59.842;17.584;2024-03-08T12:59:07;2.00;99.90
43143;DHT22;28750;59.842;17.584;2024-03-08T13:01:35;1.90;99.90
43143;DHT22;28750;59.842;17.584;2024-03-08T13:04:03;1.90;99.90
43143;DHT22;28750;59.842;17.584;2024-03-08T13:06:32;1.80;99.90
43143;DHT22;28750;59.842;17.584;2024-03-08T13:08:59;1.60;99.90
43143;DHT22;28750;59.842;17.584;2024-03-08T13:11:31;1.50;99.90
43143;DHT22;28750;59.842;17.584;2024-03-08T13:14:02;1.40;99.90
43143;DHT22;28750;59.842;17.584;2024-03-08T13:16:30;1.20;99.90
43143;DHT22;28750;59.842;17.584;2024-03-08T13:19:00;1.20;99.90
43143;DHT22;28750;59.842;17.584;2024-03-08T13:21:27;1.20;99.90
43143;DHT22;28750;59.842;17.584;2024-03-08T13:23:55;1.00;99.90
43143;DHT22;28750;59.842;17.584;2024-03-08T13:26:24;1.00;99.90
43143;DHT22;28750;59.842;17.584;2024-03-08T13:28:56;1.00;99.90
43143;DHT22;28750;59.842;17.584;2024-03-08T13:31:23;0.80;99.90
43143;DHT22;28750;59.842;17.584;2024-03-08T13:33:50;0.70;99.90
43143;DHT22;28750;59.842;17.584;2024-03-08T13:36:23;0.70;99.90
43143;DHT22;28750;59.842;17.584;2024-03-08T13:38:54;0.60;99.90
43143;DHT22;28750;59.842;17.584;2024-03-08T13:41:24;0.70;99.90
43143;DHT22;28750;59.842;17.584;2024-03-08T13:43:51;0.80;99.90
43143;DHT22;28750;59.842;17.584;2024-03-08T13:46:18;0.90;99.90
43143;DHT22;28750;59.842;17.584;2024-03-08T13:48:45;0.90;99.90
43143;DHT22;28750;59.842;17.584;2024-03-08T13:51:13;0.60;99.90
43143;DHT22;28750;59.842;17.584;2024-03-08T13:53:42;0.60;99.90
43143;DHT22;28750;59.842;17.584;2024-03-08T13:56:09;0.50;99.90
43143;DHT22;28750;59.842;17.584;2024-03-08T13:58:37;0.40;99.90
43143;DHT22;28750;59.842;17.584;2024-03-08T14:01:05;0.40;99.90
43143;DHT22;28750;59.842;17.584;2024-03-08T14:03:37;0.40;99.90
43143;DHT22;28750;59.842;17.584;2024-03-08T14:06:07;0.40;99.90
43143;DHT22;28750;59.842;17.584;2024-03-08T14:08:35;0.40;99.90
43143;DHT22;28750;59.842;17.584;2024-03-08T14:11:04;0.40;99.90
43143;DHT22;28750;59.842;17.584;2024-03-08T14:13:40;0.40;99.90
43143;DHT22;28750;59.842;17.584;2024-03-08T14:16:07;0.30;99.90
43143;DHT22;28750;59.842;17.584;2024-03-08T14:18:36;0.30;99.90
43143;DHT22;28750;59.842;17.584;2024-03-08T14:21:03;0.30;99.90
43143;DHT22;28750;59.842;17.584;2024-03-08T14:23:30;0.40;99.90
43143;DHT22;28750;59.842;17.584;2024-03-08T14:25:58;0.40;99.90
43143;DHT22;28750;59.842;17.584;2024-03-08T14:28:25;0.40;99.90
43143;DHT22;28750;59.842;17.584;2024-03-08T14:30:53;0.30;99.90
43143;DHT22;28750;59.842;17.584;2024-03-08T14:33:20;0.40;99.90
43143;DHT22;28750;59.842;17.584;2024-03-08T14:35:47;0.20;99.90
43143;DHT22;28750;59.842;17.584;2024-03-08T14:38:15;0.30;99.90
43143;DHT22;28750;59.842;17.584;2024-03-08T14:40:43;0.20;99.90
43143;DHT22;28750;59.842;17.584;2024-03-08T14:43:12;0.30;99.90
43143;DHT22;28750;59.842;17.584;2024-03-08T14:45:40;0.30;99.90
43143;DHT22;28750;59.842;17.584;2024-03-08T14:48:08;0.30;99.90
43143;DHT22;28750;59.842;17.584;2024-03-08T14:50:37;0.30;99.90
43143;DHT22;28750;59.842;17.584;2024-03-08T14:53:04;0.20;99.90
43143;DHT22;28750;59.842;17.584;2024-03-08T14:55:31;0.30;99.90
43143;DHT22;28750;59.842;17.584;2024-03-08T14:58:00;0.30;99.90
43143;DHT22;28750;59.842;17.584;2024-03-08T15:00:27;0.20;99.90
43143;DHT22;28750;59.842;17.584;2024-03-08T15:02:59;0.20;99.90
43143;DHT22;28750;59.842;17.584;2024-03-08T15:05:27;0.20;99.90
43143;DHT22;28750;59.842;17.584;2024-03-08T15:07:57;0.20;99.90
43143;DHT22;28750;59.842;17.584;2024-03-08T15:10:26;0.30;99.90
43143;DHT22;28750;59.842;17.584;2024-03-08T15:12:54;0.40;99.90
43143;DHT22;28750;59.842;17.584;2024-03-08T15:15:24;0.20;99.90
43143;DHT22;28750;59.842;17.584;2024-03-08T15:17:51;0.20;99.90
43143;DHT22;28750;59.842;17.584;2024-03-08T15:20:19;0.30;99.90
43143;DHT22;28750;59.842;17.584;2024-03-08T15:22:53;0.20;99.90
43143;DHT22;28750;59.842;17.584;2024-03-08T15:25:21;0.10;99.90
43143;DHT22;28750;59.842;17.584;2024-03-08T15:27:51;0.20;99.90
43143;DHT22;28750;59.842;17.584;2024-03-08T15:30:19;0.10;99.90
43143;DHT22;28750;59.842;17.584;2024-03-08T15:32:48;0.10;99.90
43143;DHT22;28750;59.842;17.584;2024-03-08T15:35:18;0.10;99.90
43143;DHT22;28750;59.842;17.584;2024-03-08T15:37:46;0.10;99.90
43143;DHT22;28750;59.842;17.584;2024-03-08T15:40:13;0.00;99.90
43143;DHT22;28750;59.842;17.584;2024-03-08T15:42:54;0.10;99.90
43143;DHT22;28750;59.842;17.584;2024-03-08T15:45:21;0.10;99.90
43143;DHT22;28750;59.842;17.584;2024-03-08T15:47:50;0.00;99.90
43143;DHT22;28750;59.842;17.584;2024-03-08T15:50:17;-0.10;99.90
43143;DHT22;28750;59.842;17.584;2024-03-08T15:52:46;-0.10;99.90